< < Back
Terminal Aerodrome Forecast


Current Version              Previous Versions:   1  2  3  4  5  6  7  8  9  

Terminal Aerodrome Forecast

461
FTUS42 KMLB 261505 AAA
TAFMCO
TAF AMD
KMCO 261505Z 2615/2712 11010KT P6SM VCSH SCT025 SCT070 BKN250
     FM261900 10014G21KT P6SM FEW040 SCT250
     FM270000 12010KT P6SM FEW030 BKN250
     FM270300 12005KT P6SM FEW020 SCT250=



Latest METAR

453
SAUS70 KWBC 270100 RRI
MTRMCO
METAR KMCO 270053Z 09009KT 10SM FEW050 SCT250 26/21 A3018 RMK AO2 SLP217
T02610211


USA.gov is the U.S. government's official web portal to all federal, state and local government web resources and services.